Time;durP1;ratioP1;P1;durP2;ratioP2;P2;SDS_P1;SDS_P2;PMS_P1;PMS_P2;Temp;Humidity;BMP_temperature;BMP_pressure;BME280_temperature;BME280_humidity;BME280_pressure;Samples;Min_cycle;Max_cycle;Signal;HPM_P1;HPM_P2
2022/09/10 00:00:06;;;;;;;3.67;1.43;;;;;;;19.39;60.70;97305.53;5057151;28;20205;-71
2022/09/10 00:02:31;;;;;;;4.77;1.27;;;;;;;19.42;60.87;97305.91;5062261;28;20175;-71
2022/09/10 00:04:59;;;;;;;2.60;0.80;;;;;;;19.46;61.13;97303.69;5064313;28;20263;-71
2022/09/10 00:07:24;;;;;;;1.90;0.90;;;;;;;19.43;61.07;97304.91;5030688;28;20186;-72
2022/09/10 00:09:50;;;;;;;1.50;0.87;;;;;;;19.39;60.31;97306.34;5030500;28;20421;-71
2022/09/10 00:12:15;;;;;;;2.37;0.90;;;;;;;19.32;60.09;97295.72;5008846;28;20203;-72
2022/09/10 00:14:41;;;;;;;2.27;1.00;;;;;;;19.25;59.94;97291.44;5064493;28;20210;-72
2022/09/10 00:17:06;;;;;;;4.73;1.10;;;;;;;19.21;60.14;97295.53;5060342;28;20616;-71
2022/09/10 00:19:32;;;;;;;1.83;0.70;;;;;;;19.12;60.31;97290.44;5066896;28;20193;-70
2022/09/10 00:21:58;;;;;;;1.03;0.60;;;;;;;19.12;59.66;97284.28;5062333;28;20269;-73
2022/09/10 00:24:24;;;;;;;2.17;0.90;;;;;;;19.13;59.30;97286.75;5063742;28;20206;-72
2022/09/10 00:26:49;;;;;;;6.30;0.80;;;;;;;19.03;58.89;97286.31;5057655;28;20801;-73
2022/09/10 00:29:15;;;;;;;3.07;0.83;;;;;;;19.05;58.57;97284.28;5050593;28;20433;-71
2022/09/10 00:31:42;;;;;;;1.83;0.70;;;;;;;19.04;58.92;97287.97;5063035;28;20198;-72
2022/09/10 00:34:08;;;;;;;2.00;0.80;;;;;;;19.07;59.29;97292.88;5053116;28;20791;-72
2022/09/10 00:36:36;;;;;;;2.80;0.80;;;;;;;19.03;58.47;97292.47;5047168;28;20444;-72
2022/09/10 00:39:05;;;;;;;1.50;0.80;;;;;;;19.06;58.66;97291.22;5063817;28;20186;-72
2022/09/10 00:41:32;;;;;;;2.13;0.67;;;;;;;19.12;59.14;97290.44;5049072;28;20410;-71
2022/09/10 00:44:01;;;;;;;2.10;0.70;;;;;;;19.14;58.80;97293.69;5057559;28;20448;-72
2022/09/10 00:46:32;;;;;;;1.63;0.70;;;;;;;19.15;59.37;97290.00;5061136;28;21073;-71
2022/09/10 00:49:01;;;;;;;2.10;0.70;;;;;;;19.13;59.03;97285.91;5055809;28;20445;-71
2022/09/10 00:51:29;;;;;;;1.47;0.60;;;;;;;19.15;58.83;97284.69;5064969;28;20809;-71
2022/09/10 00:53:56;;;;;;;2.17;0.80;;;;;;;19.15;59.68;97279.38;5042091;28;20461;-72
2022/09/10 00:56:21;;;;;;;1.47;0.70;;;;;;;19.15;59.88;97279.38;5060740;28;20519;-72
2022/09/10 00:58:48;;;;;;;2.03;0.70;;;;;;;19.08;59.68;97277.75;5054355;28;20433;-72
2022/09/10 01:01:14;;;;;;;1.10;0.80;;;;;;;19.09;59.49;97280.19;5061641;28;20257;-71
2022/09/10 01:03:41;;;;;;;1.40;0.70;;;;;;;18.97;59.68;97271.22;5064193;28;21163;-71
2022/09/10 01:06:07;;;;;;;1.30;0.70;;;;;;;19.06;59.69;97285.13;5068921;28;20424;-71
2022/09/10 01:08:32;;;;;;;1.00;0.60;;;;;;;19.02;59.15;97285.53;5067723;28;20923;-71
2022/09/10 01:11:10;;;;;;;2.03;0.70;;;;;;;18.99;59.13;97279.81;5062182;28;20215;-71
2022/09/10 01:14:04;;;;;;;1.77;0.70;;;;;;;19.02;59.78;97279.41;5059403;28;20206;-71
2022/09/10 01:16:38;;;;;;;1.30;0.70;;;;;;;19.02;60.07;97274.91;5048558;28;20416;-72
2022/09/10 01:19:29;;;;;;;1.80;0.97;;;;;;;19.02;59.99;97279.41;5059225;28;20430;-71
2022/09/10 01:22:05;;;;;;;1.00;0.70;;;;;;;19.02;60.51;97280.22;5056252;28;20425;-72
2022/09/10 01:24:43;;;;;;;3.70;0.93;;;;;;;19.02;61.78;97292.69;5069394;28;20440;-72
2022/09/10 01:27:27;;;;;;;1.77;0.70;;;;;;;19.05;62.55;97284.28;5064440;28;20991;-72
2022/09/10 01:30:02;;;;;;;1.53;0.87;;;;;;;19.03;63.25;97283.66;5060098;28;20433;-73
2022/09/10 01:32:50;;;;;;;3.63;0.90;;;;;;;19.04;63.44;97287.97;5064635;28;20455;-71
2022/09/10 01:35:25;;;;;;;1.00;0.67;;;;;;;19.01;63.68;97283.88;5058150;28;20963;-72
2022/09/10 01:37:54;;;;;;;3.47;1.10;;;;;;;19.00;63.69;97292.88;5064096;28;20417;-72
2022/09/10 01:40:28;;;;;;;3.70;0.97;;;;;;;18.99;63.70;97285.13;5069802;28;20526;-73
2022/09/10 01:42:59;;;;;;;1.00;0.60;;;;;;;18.94;63.99;97285.72;5054082;28;20427;-72
2022/09/10 01:45:24;;;;;;;3.73;0.83;;;;;;;18.94;64.43;97282.25;5066330;28;20451;-73
2022/09/10 01:48:24;;;;;;;1.20;0.70;;;;;;;18.96;64.45;97282.88;5065978;28;20697;-71
2022/09/10 01:50:59;;;;;;;4.20;1.30;;;;;;;18.86;64.44;97286.72;5068824;28;20642;-72
2022/09/10 01:53:43;;;;;;;1.27;0.70;;;;;;;18.87;64.77;97287.53;5062973;28;20443;-72
2022/09/10 01:56:34;;;;;;;1.00;0.70;;;;;;;18.86;64.74;97281.41;5060962;28;20427;-73
2022/09/10 01:59:05;;;;;;;1.83;1.00;;;;;;;18.86;64.84;97277.91;5058084;28;20409;-72
2022/09/10 02:01:48;;;;;;;3.43;0.90;;;;;;;18.81;64.76;97278.53;5042724;28;20428;-74
2022/09/10 02:04:14;;;;;;;1.63;0.60;;;;;;;18.79;65.05;97275.25;5054476;28;20995;-72
2022/09/10 02:06:41;;;;;;;1.17;1.07;;;;;;;18.78;65.17;97278.94;5059347;28;20432;-72
2022/09/10 02:09:08;;;;;;;1.43;0.70;;;;;;;18.73;65.02;97268.94;5062960;28;20552;-71
2022/09/10 02:11:51;;;;;;;1.60;0.90;;;;;;;18.69;65.28;97278.34;5066405;28;20461;-73
2022/09/10 02:14:17;;;;;;;2.00;0.97;;;;;;;18.74;65.32;97272.41;5062637;28;20445;-72
2022/09/10 02:16:46;;;;;;;2.07;0.90;;;;;;;18.78;65.17;97272.81;5066264;28;20508;-72
2022/09/10 02:19:13;;;;;;;7.00;1.23;;;;;;;18.71;65.36;97268.31;5061852;28;20210;-72
2022/09/10 02:21:38;;;;;;;1.87;1.10;;;;;;;18.75;65.50;97271.41;5062267;28;20599;-72
2022/09/10 02:24:06;;;;;;;4.27;1.20;;;;;;;18.79;65.68;97277.09;5062890;28;20647;-71
2022/09/10 02:26:33;;;;;;;5.73;1.00;;;;;;;18.78;65.48;97273.63;5066233;28;20630;-71
2022/09/10 02:29:00;;;;;;;8.13;1.17;;;;;;;18.72;64.72;97272.59;5044023;28;20431;-71
2022/09/10 02:31:26;;;;;;;1.40;0.90;;;;;;;18.67;64.67;97276.88;5063697;28;20467;-71
2022/09/10 02:33:53;;;;;;;1.73;0.90;;;;;;;18.67;64.29;97272.41;5066315;28;20445;-73
2022/09/10 02:36:19;;;;;;;2.43;1.23;;;;;;;18.66;63.89;97269.94;5057298;28;20200;-71
2022/09/10 02:38:44;;;;;;;4.37;1.03;;;;;;;18.69;63.67;97269.53;5070982;28;20916;-71
2022/09/10 02:41:10;;;;;;;1.60;0.93;;;;;;;18.66;63.60;97264.63;5061165;28;20258;-72
2022/09/10 02:43:37;;;;;;;1.60;1.03;;;;;;;18.64;64.14;97264.03;5056785;28;20226;-71
2022/09/10 02:46:06;;;;;;;1.10;0.80;;;;;;;18.61;64.46;97262.59;5056216;28;20182;-72
2022/09/10 02:48:31;;;;;;;2.73;1.10;;;;;;;18.56;64.08;97271.16;5047535;28;20421;-72
2022/09/10 02:50:57;;;;;;;1.10;0.70;;;;;;;18.64;63.95;97266.69;5051957;28;20562;-71
2022/09/10 02:53:22;;;;;;;1.70;0.90;;;;;;;18.64;63.60;97269.34;5056341;28;20194;-71
2022/09/10 02:55:47;;;;;;;3.43;0.80;;;;;;;18.65;63.39;97273.63;5065563;28;20214;-71
2022/09/10 02:58:14;;;;;;;1.60;0.97;;;;;;;18.57;63.61;97272.00;5063210;28;20270;-72
2022/09/10 03:00:40;;;;;;;3.53;1.27;;;;;;;18.54;63.62;97265.22;5062806;28;20174;-72
2022/09/10 03:03:06;;;;;;;6.00;1.07;;;;;;;18.56;63.96;97260.53;5063638;28;20421;-72
2022/09/10 03:05:32;;;;;;;3.37;1.30;;;;;;;18.57;64.31;97259.53;5064872;28;20206;-73
2022/09/10 03:07:58;;;;;;;1.77;0.90;;;;;;;18.55;64.18;97260.75;5065680;28;20182;-72
2022/09/10 03:10:23;;;;;;;1.50;0.90;;;;;;;18.55;64.31;97266.06;5052547;28;20214;-71
2022/09/10 03:12:49;;;;;;;1.83;1.00;;;;;;;18.57;64.31;97267.47;5064207;28;20516;-71
2022/09/10 03:15:16;;;;;;;3.00;1.30;;;;;;;18.63;64.89;97265.84;5065203;28;20209;-71
2022/09/10 03:17:41;;;;;;;2.43;0.90;;;;;;;18.68;64.91;97265.25;5063959;28;20636;-71
2022/09/10 03:20:07;;;;;;;2.20;0.90;;;;;;;18.65;64.89;97252.41;5066303;28;20504;-70
2022/09/10 03:22:32;;;;;;;2.60;1.00;;;;;;;18.63;64.63;97257.09;5056592;28;20235;-71
2022/09/10 03:24:58;;;;;;;2.30;1.00;;;;;;;18.61;64.77;97253.81;5069549;28;20202;-71
2022/09/10 03:27:25;;;;;;;2.90;1.00;;;;;;;18.54;64.79;97261.78;5058874;28;20190;-72
2022/09/10 03:29:50;;;;;;;2.70;1.10;;;;;;;18.55;64.88;97261.56;5063735;28;20185;-71
2022/09/10 03:32:15;;;;;;;1.87;0.83;;;;;;;18.54;64.86;97262.56;5064916;28;20453;-71
2022/09/10 03:34:41;;;;;;;1.43;0.60;;;;;;;18.47;64.96;97259.09;5064195;28;20289;-72
2022/09/10 03:37:07;;;;;;;2.80;0.90;;;;;;;18.49;65.30;97250.94;5054018;28;20698;-71
2022/09/10 03:39:32;;;;;;;1.97;0.80;;;;;;;18.50;65.21;97256.06;5065414;28;20192;-72
2022/09/10 03:41:58;;;;;;;3.70;1.00;;;;;;;18.48;65.19;97258.09;5059766;28;20653;-71
2022/09/10 03:44:24;;;;;;;2.37;1.00;;;;;;;18.43;64.90;97252.56;5057236;28;20210;-71
2022/09/10 03:46:50;;;;;;;7.00;1.23;;;;;;;18.43;65.53;97257.88;5034691;28;20190;-71
2022/09/10 03:49:16;;;;;;;1.40;1.17;;;;;;;18.40;65.65;97259.09;5049984;28;20468;-72
2022/09/10 03:51:41;;;;;;;2.63;0.90;;;;;;;18.35;65.61;97252.75;5049450;28;20857;-71
2022/09/10 03:54:07;;;;;;;4.20;0.90;;;;;;;18.36;65.45;97259.69;5042351;28;20540;-71
2022/09/10 03:56:33;;;;;;;4.17;1.03;;;;;;;18.39;65.69;97260.09;5049687;28;20241;-71
2022/09/10 03:58:59;;;;;;;1.40;0.90;;;;;;;18.42;65.46;97257.06;5049768;28;20179;-73
2022/09/10 04:01:24;;;;;;;1.20;0.80;;;;;;;18.33;65.33;97254.78;5049422;28;20185;-70
2022/09/10 04:03:54;;;;;;;3.80;1.17;;;;;;;18.26;65.90;97252.13;5050447;28;20528;-71
2022/09/10 04:06:19;;;;;;;2.20;1.00;;;;;;;18.28;65.57;97252.75;5048242;28;20703;-72
2022/09/10 04:08:48;;;;;;;3.90;1.20;;;;;;;18.30;65.44;97252.53;5038739;28;20429;-71
2022/09/10 04:11:13;;;;;;;5.87;1.10;;;;;;;18.31;65.56;97259.47;5039493;28;20214;-72
2022/09/10 04:13:39;;;;;;;3.80;1.00;;;;;;;18.36;65.56;97262.34;5048924;28;20445;-71
2022/09/10 04:16:04;;;;;;;3.00;1.03;;;;;;;18.39;65.54;97254.00;5045857;28;20266;-72
2022/09/10 04:18:33;;;;;;;2.33;1.03;;;;;;;18.35;65.27;97253.56;5044675;28;20186;-72
2022/09/10 04:20:58;;;;;;;2.27;1.10;;;;;;;18.38;65.10;97258.47;5057472;28;20190;-72
2022/09/10 04:23:24;;;;;;;3.50;1.10;;;;;;;18.37;65.54;97251.53;5050178;28;20433;-72
2022/09/10 04:25:49;;;;;;;1.53;1.03;;;;;;;18.26;65.23;97250.28;5043265;28;20186;-72
2022/09/10 04:28:15;;;;;;;3.00;1.10;;;;;;;18.32;65.21;97258.44;5030774;28;20190;-71
2022/09/10 04:30:43;;;;;;;3.50;1.03;;;;;;;18.31;65.38;97257.66;4983379;28;20211;-73
2022/09/10 04:33:10;;;;;;;5.50;1.40;;;;;;;18.30;65.45;97261.31;5045118;28;20183;-72
2022/09/10 04:35:35;;;;;;;4.20;1.10;;;;;;;18.30;65.24;97260.47;5015545;28;20466;-71
2022/09/10 04:38:00;;;;;;;1.57;1.00;;;;;;;18.26;64.84;97260.91;5046106;28;20418;-71
2022/09/10 04:40:26;;;;;;;2.70;1.10;;;;;;;18.31;65.17;97267.44;5053516;28;20262;-73
2022/09/10 04:42:51;;;;;;;2.50;1.10;;;;;;;18.35;65.04;97268.66;5051076;28;20739;-72
2022/09/10 04:45:18;;;;;;;1.57;1.10;;;;;;;18.32;65.19;97264.59;5057125;28;20202;-72
2022/09/10 04:47:45;;;;;;;1.97;0.93;;;;;;;18.30;64.96;97266.63;5052186;28;20623;-73
2022/09/10 04:50:11;;;;;;;4.43;1.03;;;;;;;18.24;65.31;97268.25;5052251;28;20970;-72
2022/09/10 04:52:36;;;;;;;2.40;1.10;;;;;;;18.22;65.23;97272.91;5049589;28;20461;-73
2022/09/10 04:55:02;;;;;;;1.67;0.73;;;;;;;18.23;64.94;97277.22;5053951;28;20206;-72
2022/09/10 04:57:27;;;;;;;1.63;1.00;;;;;;;18.24;64.73;97276.19;5052361;28;20191;-72
2022/09/10 04:59:53;;;;;;;2.13;0.90;;;;;;;18.22;64.53;97286.19;5052954;28;20179;-72
2022/09/10 05:02:19;;;;;;;4.70;0.90;;;;;;;18.22;64.73;97282.69;5051811;28;20210;-73
2022/09/10 05:04:44;;;;;;;2.03;0.90;;;;;;;18.25;64.79;97279.66;5053353;28;20553;-74
2022/09/10 05:07:10;;;;;;;1.43;0.80;;;;;;;18.30;64.89;97287.00;5052737;28;20430;-72
2022/09/10 05:09:35;;;;;;;1.43;0.97;;;;;;;18.33;64.78;97286.63;5052186;28;20183;-71
2022/09/10 05:12:01;;;;;;;2.90;1.00;;;;;;;18.39;64.43;97285.84;5048542;28;20195;-72
2022/09/10 05:14:28;;;;;;;2.13;1.10;;;;;;;18.41;64.64;97281.13;5053126;28;20226;-72
2022/09/10 05:16:54;;;;;;;5.50;0.80;;;;;;;18.38;64.38;97281.53;5047545;28;20515;-72
2022/09/10 05:19:19;;;;;;;1.47;0.90;;;;;;;18.41;64.66;97286.44;5053665;28;20474;-71
2022/09/10 05:21:46;;;;;;;1.40;0.70;;;;;;;18.42;64.67;97288.91;5059229;28;20175;-73
2022/09/10 05:24:11;;;;;;;3.00;0.80;;;;;;;18.38;64.81;97281.53;5049470;28;20277;-71
2022/09/10 05:26:37;;;;;;;3.20;1.03;;;;;;;18.39;64.85;97281.31;5052186;28;20428;-72
2022/09/10 05:29:02;;;;;;;2.43;1.10;;;;;;;18.41;64.79;97279.28;5052955;28;20214;-72
2022/09/10 05:31:28;;;;;;;3.53;0.87;;;;;;;18.40;64.76;97282.13;5057581;28;20682;-72
2022/09/10 05:33:58;;;;;;;2.33;0.83;;;;;;;18.33;64.99;97291.94;5053006;28;20198;-72
2022/09/10 05:36:23;;;;;;;1.50;0.73;;;;;;;18.41;64.47;97289.06;5051946;28;20207;-71
2022/09/10 05:38:49;;;;;;;1.40;0.53;;;;;;;18.32;64.50;97280.50;5049537;28;20517;-73
2022/09/10 05:41:15;;;;;;;6.63;0.80;;;;;;;18.34;64.51;97285.59;5052409;28;20187;-71
2022/09/10 05:43:40;;;;;;;1.00;0.80;;;;;;;18.35;64.40;97285.38;5051144;28;20449;-72
2022/09/10 05:46:07;;;;;;;3.80;1.43;;;;;;;18.40;64.35;97287.44;5041669;28;20189;-72
2022/09/10 05:48:33;;;;;;;2.40;0.90;;;;;;;18.39;64.39;97291.13;5052098;28;20179;-72
2022/09/10 05:50:58;;;;;;;4.70;1.10;;;;;;;18.40;64.59;97292.75;5052521;28;20464;-70
2022/09/10 05:53:24;;;;;;;3.83;0.93;;;;;;;18.39;64.73;97291.13;5048189;28;20909;-72
2022/09/10 05:55:49;;;;;;;2.10;1.10;;;;;;;18.34;64.70;97296.22;5063725;28;20294;-72
2022/09/10 05:58:15;;;;;;;2.03;1.00;;;;;;;18.35;64.82;97295.19;5062057;28;20182;-72
2022/09/10 06:00:42;;;;;;;1.93;0.70;;;;;;;18.36;64.60;97302.94;5068707;28;20254;-73
2022/09/10 06:03:07;;;;;;;2.23;0.90;;;;;;;18.35;64.49;97306.63;5053965;28;20187;-73
2022/09/10 06:05:33;;;;;;;1.47;1.00;;;;;;;18.29;64.55;97304.78;5069969;28;20436;-73
2022/09/10 06:07:58;;;;;;;3.00;0.80;;;;;;;18.26;64.80;97298.03;5062225;28;20270;-73
2022/09/10 06:10:24;;;;;;;1.70;0.90;;;;;;;18.23;65.06;97302.91;5065141;28;20198;-71
2022/09/10 06:12:50;;;;;;;3.23;1.07;;;;;;;18.18;65.33;97308.81;5065296;28;20257;-71
2022/09/10 06:15:16;;;;;;;3.57;0.90;;;;;;;18.19;65.56;97301.69;5066288;28;20207;-72
2022/09/10 06:17:42;;;;;;;3.67;1.10;;;;;;;18.15;65.19;97306.53;5065614;28;20932;-71
2022/09/10 06:20:08;;;;;;;1.83;0.80;;;;;;;18.10;65.60;97307.16;5066348;28;20437;-72
2022/09/10 06:22:34;;;;;;;1.73;0.90;;;;;;;18.02;65.71;97311.81;5059293;28;20660;-72
2022/09/10 06:24:59;;;;;;;5.43;1.20;;;;;;;18.11;65.77;97307.97;5061774;28;20499;-73
2022/09/10 06:27:25;;;;;;;1.43;0.80;;;;;;;18.19;65.07;97318.41;5057825;28;20567;-72
2022/09/10 06:29:50;;;;;;;2.57;0.90;;;;;;;18.24;64.63;97318.63;5063820;28;20186;-72
2022/09/10 06:32:16;;;;;;;1.10;0.77;;;;;;;18.31;64.79;97304.56;5063493;28;20275;-72
2022/09/10 06:34:42;;;;;;;2.13;0.80;;;;;;;18.24;64.82;97315.16;5055053;28;20202;-73
2022/09/10 06:37:07;;;;;;;2.50;0.77;;;;;;;18.31;64.75;97320.47;5066978;28;20832;-73
2022/09/10 06:39:32;;;;;;;5.03;0.87;;;;;;;18.31;64.51;97309.88;5066597;28;20268;-73
2022/09/10 06:41:58;;;;;;;2.70;0.80;;;;;;;18.32;64.46;97301.72;5062085;28;20185;-73
2022/09/10 06:44:25;;;;;;;1.40;0.83;;;;;;;18.33;64.88;97306.03;5065493;28;20210;-73
2022/09/10 06:46:52;;;;;;;2.20;0.93;;;;;;;18.30;64.90;97318.84;5051574;28;20182;-72
2022/09/10 06:49:17;;;;;;;2.70;0.80;;;;;;;18.42;64.49;97323.38;5065041;28;20421;-73
2022/09/10 06:51:43;;;;;;;2.57;0.97;;;;;;;18.42;64.01;97314.59;5056784;28;20814;-73
2022/09/10 06:54:08;;;;;;;1.50;1.00;;;;;;;18.45;64.18;97319.50;5054185;28;20199;-72
2022/09/10 06:56:34;;;;;;;2.37;0.80;;;;;;;18.47;64.11;97312.16;5060333;28;20264;-73
2022/09/10 06:58:59;;;;;;;4.63;1.07;;;;;;;18.45;64.51;97314.19;5061719;28;20191;-72
2022/09/10 07:01:25;;;;;;;2.73;0.90;;;;;;;18.56;64.29;97313.63;5065398;28;20273;-71
2022/09/10 07:03:55;;;;;;;2.70;0.90;;;;;;;18.55;64.15;97317.28;5058018;28;20211;-72
2022/09/10 07:06:22;;;;;;;1.83;1.00;;;;;;;18.73;63.76;97323.88;5064796;28;20198;-72
2022/09/10 07:08:52;;;;;;;2.70;0.97;;;;;;;18.80;63.70;97324.69;5056990;28;20425;-71
2022/09/10 07:11:17;;;;;;;1.93;1.10;;;;;;;18.87;63.45;97330.84;5058741;28;20464;-71
2022/09/10 07:13:43;;;;;;;2.90;1.00;;;;;;;18.97;63.73;97335.75;5063440;28;20940;-70
2022/09/10 07:16:08;;;;;;;3.03;1.07;;;;;;;18.97;62.97;97341.06;5067301;28;20198;-72
2022/09/10 07:18:34;;;;;;;1.93;0.70;;;;;;;18.99;63.55;97343.53;5063129;28;20550;-71
2022/09/10 07:21:11;;;;;;;5.47;0.90;;;;;;;18.98;63.41;97348.00;5059334;28;20179;-71
2022/09/10 07:23:37;;;;;;;3.27;0.97;;;;;;;19.05;63.41;97357.84;5058036;28;20180;-73
2022/09/10 07:26:08;;;;;;;1.60;1.00;;;;;;;19.05;63.24;97352.53;5062796;28;20512;-72
2022/09/10 07:28:35;;;;;;;3.10;0.90;;;;;;;19.18;62.87;97357.84;5062216;28;20515;-72
2022/09/10 07:31:18;;;;;;;2.60;0.97;;;;;;;19.26;62.54;97359.50;5065715;28;20464;-72
2022/09/10 07:33:44;;;;;;;3.43;0.77;;;;;;;19.33;62.16;97360.31;5061497;28;20833;-72
2022/09/10 07:36:11;;;;;;;2.83;0.77;;;;;;;19.31;62.07;97359.69;5067485;28;20432;-71
2022/09/10 07:38:39;;;;;;;1.93;0.90;;;;;;;19.26;62.03;97364.81;5063313;28;20435;-72
2022/09/10 07:41:10;;;;;;;2.70;0.97;;;;;;;19.27;61.99;97361.13;5055637;28;20436;-71
2022/09/10 07:43:38;;;;;;;2.93;0.73;;;;;;;19.37;61.60;97371.31;5066387;28;20412;-71
2022/09/10 07:46:11;;;;;;;1.63;0.60;;;;;;;19.33;61.52;97373.59;5053529;28;20498;-71
2022/09/10 07:48:37;;;;;;;1.90;1.23;;;;;;;19.45;61.35;97377.25;5068760;28;20508;-72
2022/09/10 07:51:05;;;;;;;3.93;1.00;;;;;;;19.51;61.28;97380.13;5059687;28;20463;-72
2022/09/10 07:53:31;;;;;;;2.00;1.23;;;;;;;19.48;61.03;97379.53;5050767;28;20422;-71
2022/09/10 07:56:01;;;;;;;3.33;0.97;;;;;;;19.28;61.80;97384.81;5040533;28;20774;-72
2022/09/10 07:58:30;;;;;;;2.80;1.07;;;;;;;19.28;61.86;97376.84;5048880;28;20798;-72
2022/09/10 08:00:58;;;;;;;1.20;0.70;;;;;;;19.37;61.31;97389.94;5064598;28;20417;-71
2022/09/10 08:03:27;;;;;;;2.10;0.87;;;;;;;19.40;61.34;97387.72;5062113;28;20417;-72
2022/09/10 08:05:53;;;;;;;1.30;0.80;;;;;;;19.19;61.96;97386.84;5066438;28;20511;-72
2022/09/10 08:08:19;;;;;;;1.57;0.80;;;;;;;19.37;61.44;97396.06;5055300;28;20426;-72
2022/09/10 08:10:45;;;;;;;4.20;0.73;;;;;;;19.48;61.52;97389.31;5058995;28;20427;-72
2022/09/10 08:13:11;;;;;;;3.10;0.77;;;;;;;19.53;61.08;97389.53;5059706;28;20265;-73
2022/09/10 08:15:43;;;;;;;1.73;0.90;;;;;;;19.43;61.10;97395.25;5066577;28;20472;-72
2022/09/10 08:18:10;;;;;;;3.20;0.70;;;;;;;19.52;60.46;97389.75;5062088;28;20178;-72
2022/09/10 08:20:37;;;;;;;2.27;1.00;;;;;;;19.51;60.68;97390.75;5047417;28;20421;-71
2022/09/10 08:23:02;;;;;;;1.90;1.10;;;;;;;19.71;59.86;97388.91;5050668;28;20418;-72
2022/09/10 08:25:29;;;;;;;1.20;0.97;;;;;;;19.91;59.83;97391.56;5059430;28;20499;-71
2022/09/10 08:27:56;;;;;;;1.83;0.80;;;;;;;19.94;58.17;97387.66;5065182;28;20174;-72
2022/09/10 08:30:21;;;;;;;1.70;0.70;;;;;;;20.05;58.48;97394.19;5061410;28;20479;-71
2022/09/10 08:32:47;;;;;;;2.50;0.70;;;;;;;20.05;58.33;97399.50;5066117;28;20551;-72
2022/09/10 08:35:13;;;;;;;3.83;1.20;;;;;;;20.14;58.04;97400.09;5062231;28;20289;-70
2022/09/10 08:37:39;;;;;;;2.40;0.80;;;;;;;20.28;57.31;97399.03;5066652;28;20891;-71
2022/09/10 08:40:05;;;;;;;1.73;1.07;;;;;;;20.28;56.92;97404.38;5064344;28;20424;-71
2022/09/10 08:43:00;;;;;;;2.40;0.80;;;;;;;20.33;55.93;97399.22;5057646;28;20178;-70
2022/09/10 08:45:31;;;;;;;2.80;0.70;;;;;;;20.50;56.25;97404.88;5042559;28;20536;-69
2022/09/10 08:47:57;;;;;;;3.57;1.00;;;;;;;20.60;56.09;97396.44;5061253;28;20427;-70
2022/09/10 08:50:41;;;;;;;1.30;0.60;;;;;;;20.55;55.55;97394.44;5055630;28;20792;-70
2022/09/10 08:53:38;;;;;;;2.03;0.90;;;;;;;20.69;54.92;97399.69;5065480;28;20421;-70
2022/09/10 08:56:08;;;;;;;2.40;0.90;;;;;;;20.79;54.57;97404.59;5059723;28;20418;-70
2022/09/10 08:58:52;;;;;;;2.20;0.80;;;;;;;20.95;54.50;97408.59;5046285;28;20425;-70
2022/09/10 09:01:39;;;;;;;4.97;0.87;;;;;;;21.09;54.88;97398.66;5061784;28;20421;-70
2022/09/10 09:04:15;;;;;;;3.07;0.80;;;;;;;20.98;53.30;97408.97;5059491;28;20437;-69
2022/09/10 09:06:47;;;;;;;6.53;1.73;;;;;;;21.22;52.48;97400.44;5065351;28;20443;-70
2022/09/10 09:09:13;;;;;;;3.20;1.07;;;;;;;21.28;51.93;97397.72;5061047;28;20420;-70
2022/09/10 09:11:56;;;;;;;3.67;0.90;;;;;;;21.27;51.45;97388.09;5056461;28;20837;-70
2022/09/10 09:14:32;;;;;;;2.63;0.90;;;;;;;21.37;50.91;97400.09;5055398;28;20226;-70
2022/09/10 09:17:12;;;;;;;7.40;0.93;;;;;;;21.55;49.93;97400.16;5059064;28;20443;-69
2022/09/10 09:20:04;;;;;;;3.53;1.00;;;;;;;21.94;49.35;97400.84;5063212;28;20422;-71
2022/09/10 09:22:33;;;;;;;2.20;0.90;;;;;;;22.17;49.86;97410.09;5062554;28;20817;-70
2022/09/10 09:25:21;;;;;;;1.43;0.80;;;;;;;22.25;48.73;97412.44;5057074;28;20501;-71
2022/09/10 09:27:50;;;;;;;2.90;0.87;;;;;;;22.16;48.76;97405.78;5058475;28;20425;-70
2022/09/10 09:30:18;;;;;;;2.60;0.70;;;;;;;22.30;48.36;97408.31;5062777;28;20794;-70
2022/09/10 09:32:45;;;;;;;2.40;0.70;;;;;;;22.32;48.09;97406.19;5068992;28;20467;-70
2022/09/10 09:35:23;;;;;;;2.03;0.80;;;;;;;22.57;47.72;97410.66;5063634;28;20444;-70
2022/09/10 09:37:52;;;;;;;2.03;0.80;;;;;;;22.65;47.30;97405.84;5059581;28;20841;-69
2022/09/10 09:40:29;;;;;;;1.20;0.63;;;;;;;22.63;47.51;97412.44;5065843;28;20424;-69
2022/09/10 09:42:58;;;;;;;2.57;1.07;;;;;;;22.53;47.24;97411.13;5069560;28;20420;-69
2022/09/10 09:45:42;;;;;;;2.00;0.90;;;;;;;22.40;47.15;97408.59;5058250;28;20559;-70
2022/09/10 09:48:11;;;;;;;5.73;0.90;;;;;;;22.61;47.48;97422.53;5066308;28;20916;-70
2022/09/10 09:50:37;;;;;;;2.03;0.80;;;;;;;22.57;46.56;97416.84;5062069;28;20524;-69
2022/09/10 09:53:03;;;;;;;2.33;0.70;;;;;;;22.47;46.20;97414.69;5068544;28;20432;-69
2022/09/10 09:55:28;;;;;;;6.90;1.33;;;;;;;22.49;46.81;97409.94;5063191;28;20959;-70
2022/09/10 09:58:20;;;;;;;1.30;0.73;;;;;;;22.43;47.09;97413.50;5059402;28;20269;-70
2022/09/10 10:00:48;;;;;;;5.03;0.80;;;;;;;22.15;47.63;97406.81;5058459;28;20646;-69
2022/09/10 10:03:36;;;;;;;3.30;0.97;;;;;;;22.28;47.94;97405.03;5041095;28;20492;-70
2022/09/10 10:06:07;;;;;;;7.73;1.20;;;;;;;22.47;47.43;97411.22;5048577;28;20422;-69
2022/09/10 10:08:40;;;;;;;5.23;1.20;;;;;;;22.46;47.25;97402.38;5050055;28;20470;-69
2022/09/10 10:11:06;;;;;;;2.37;0.90;;;;;;;22.61;46.85;97399.34;5032549;28;20558;-70
2022/09/10 10:13:40;;;;;;;4.93;1.23;;;;;;;22.65;46.71;97410.38;5012478;28;20424;-70
2022/09/10 10:16:35;;;;;;;3.40;0.93;;;;;;;22.64;46.39;97414.88;5067499;28;20424;-70
2022/09/10 10:19:01;;;;;;;1.73;0.70;;;;;;;22.57;46.91;97405.31;5047041;28;20591;-69
2022/09/10 10:21:35;;;;;;;1.50;0.80;;;;;;;22.52;46.16;97404.16;5059182;28;20500;-70
2022/09/10 10:24:02;;;;;;;1.50;0.77;;;;;;;22.68;46.49;97400.03;5056295;28;20212;-70
2022/09/10 10:26:34;;;;;;;3.63;0.90;;;;;;;22.58;46.93;97388.25;5068640;28;20420;-72
2022/09/10 10:29:16;;;;;;;3.33;0.80;;;;;;;22.11;47.73;97389.59;5061549;28;20424;-70
2022/09/10 10:31:43;;;;;;;1.47;0.70;;;;;;;22.41;47.00;97391.56;5046391;28;20457;-70
2022/09/10 10:34:22;;;;;;;2.47;0.70;;;;;;;22.40;46.78;97397.91;5062711;28;20437;-70
2022/09/10 10:37:08;;;;;;;3.30;0.93;;;;;;;22.24;47.34;97389.47;5068476;28;20420;-69
2022/09/10 10:39:49;;;;;;;2.70;0.80;;;;;;;22.41;47.14;97388.91;5055987;28;20416;-69
2022/09/10 10:42:23;;;;;;;2.07;0.80;;;;;;;22.47;46.99;97382.63;5059636;28;20425;-69
2022/09/10 10:44:54;;;;;;;1.17;0.60;;;;;;;22.67;46.96;97381.59;5060948;28;20433;-69
2022/09/10 10:47:37;;;;;;;2.83;0.90;;;;;;;;;;5036550;28;20480;-69
2022/09/10 10:50:17;;;;;;;4.27;1.13;;;;;;;22.96;45.59;97393.31;5049285;28;20520;-71
2022/09/10 10:52:50;;;;;;;1.87;1.00;;;;;;;23.20;45.04;97373.84;5050796;28;20518;-69
2022/09/10 10:55:20;;;;;;;1.90;0.80;;;;;;;23.26;45.08;97378.28;5055040;28;20521;-72
2022/09/10 10:58:04;;;;;;;1.63;0.63;;;;;;;23.28;44.21;97377.00;5049701;28;20853;-70
2022/09/10 11:00:39;;;;;;;1.53;0.73;;;;;;;23.43;44.29;97367.72;5037190;28;20408;-71
2022/09/10 11:03:20;;;;;;;2.13;0.93;;;;;;;23.39;44.23;97372.75;5037199;28;20422;-72
2022/09/10 11:05:50;;;;;;;3.37;0.80;;;;;;;23.34;42.94;97369.94;5059287;28;20440;-70
2022/09/10 11:08:18;;;;;;;9.30;1.50;;;;;;;23.82;42.78;97367.28;5040892;28;20426;-70
2022/09/10 11:10:49;;;;;;;3.90;0.90;;;;;;;23.99;42.95;97376.25;5055134;28;20425;-71
2022/09/10 11:13:24;;;;;;;2.00;0.73;;;;;;;23.85;42.16;97358.78;5061024;28;20521;-69
2022/09/10 11:16:04;;;;;;;3.47;1.83;;;;;;;23.77;41.85;97363.44;5066184;28;20444;-69
2022/09/10 11:18:45;;;;;;;2.90;1.20;;;;;;;24.26;41.55;97367.69;5060123;28;20488;-70
2022/09/10 11:21:19;;;;;;;2.53;1.20;;;;;;;24.56;40.45;97364.00;5059919;28;20897;-69
2022/09/10 11:23:53;;;;;;;2.73;0.67;;;;;;;24.49;39.70;97356.13;5059130;28;20973;-70
2022/09/10 11:26:38;;;;;;;1.23;0.83;;;;;;;24.47;39.10;97360.88;5064466;28;20424;-69
2022/09/10 11:29:25;;;;;;;6.37;1.03;;;;;;;24.44;39.49;97361.34;5049379;28;20446;-70
2022/09/10 11:32:04;;;;;;;2.40;0.97;;;;;;;24.33;39.12;97370.25;5044433;28;20455;-69
2022/09/10 11:34:40;;;;;;;2.43;1.17;;;;;;;24.31;39.95;97359.78;5040723;28;20543;-71
2022/09/10 11:37:24;;;;;;;1.60;0.90;;;;;;;24.14;39.11;97361.56;5036178;28;20445;-69
2022/09/10 11:39:52;;;;;;;5.17;1.40;;;;;;;23.99;39.83;97349.47;5053534;28;20421;-70
2022/09/10 11:42:19;;;;;;;2.30;0.80;;;;;;;24.05;40.34;97355.75;5057380;28;20422;-71
2022/09/10 11:45:01;;;;;;;4.20;1.57;;;;;;;23.82;39.96;97356.59;5035018;28;20452;-70